sensor_id;sensor_type;location;lat;lon;timestamp;temperature;humidity
22532;DHT22;11432;46.924;7.114;2024-02-26T00:00:27;6.90;1.00
22532;DHT22;11432;46.924;7.114;2024-02-26T00:02:54;6.90;1.00
22532;DHT22;11432;46.924;7.114;2024-02-26T00:05:20;7.00;1.00
22532;DHT22;11432;46.924;7.114;2024-02-26T00:07:45;6.90;99.90
22532;DHT22;11432;46.924;7.114;2024-02-26T00:10:13;7.00;99.90
22532;DHT22;11432;46.924;7.114;2024-02-26T00:12:38;7.00;99.90
22532;DHT22;11432;46.924;7.114;2024-02-26T00:15:06;7.00;1.00
22532;DHT22;11432;46.924;7.114;2024-02-26T00:17:31;6.90;1.00
22532;DHT22;11432;46.924;7.114;2024-02-26T00:19:57;6.80;99.90
22532;DHT22;11432;46.924;7.114;2024-02-26T00:22:23;6.80;1.00
22532;DHT22;11432;46.924;7.114;2024-02-26T00:24:48;6.80;1.00
22532;DHT22;11432;46.924;7.114;2024-02-26T00:27:14;6.80;1.00
22532;DHT22;11432;46.924;7.114;2024-02-26T00:29:39;6.70;1.00
22532;DHT22;11432;46.924;7.114;2024-02-26T00:32:05;6.70;99.90
22532;DHT22;11432;46.924;7.114;2024-02-26T00:34:31;6.70;1.00
22532;DHT22;11432;46.924;7.114;2024-02-26T00:36:57;6.70;1.00
22532;DHT22;11432;46.924;7.114;2024-02-26T00:39:22;6.70;1.00
22532;DHT22;11432;46.924;7.114;2024-02-26T00:41:48;6.70;99.90
22532;DHT22;11432;46.924;7.114;2024-02-26T00:44:13;6.60;1.00
22532;DHT22;11432;46.924;7.114;2024-02-26T00:46:39;6.60;1.00
22532;DHT22;11432;46.924;7.114;2024-02-26T00:49:05;6.60;1.00
22532;DHT22;11432;46.924;7.114;2024-02-26T00:51:31;6.60;1.00
22532;DHT22;11432;46.924;7.114;2024-02-26T00:53:56;6.60;1.00
22532;DHT22;11432;46.924;7.114;2024-02-26T00:56:22;6.60;99.90
22532;DHT22;11432;46.924;7.114;2024-02-26T00:58:48;6.60;1.00
22532;DHT22;11432;46.924;7.114;2024-02-26T01:01:13;6.60;1.00
22532;DHT22;11432;46.924;7.114;2024-02-26T01:03:39;6.60;1.00
22532;DHT22;11432;46.924;7.114;2024-02-26T01:06:04;6.60;1.00
22532;DHT22;11432;46.924;7.114;2024-02-26T01:08:30;6.60;1.00
22532;DHT22;11432;46.924;7.114;2024-02-26T01:10:57;6.60;1.00
22532;DHT22;11432;46.924;7.114;2024-02-26T01:13:22;6.60;1.00
22532;DHT22;11432;46.924;7.114;2024-02-26T01:15:48;6.60;1.00
22532;DHT22;11432;46.924;7.114;2024-02-26T01:18:14;6.60;28.60
22532;DHT22;11432;46.924;7.114;2024-02-26T01:20:39;6.60;91.70
22532;DHT22;11432;46.924;7.114;2024-02-26T01:23:05;6.60;1.00
22532;DHT22;11432;46.924;7.114;2024-02-26T01:25:31;6.60;1.00
22532;DHT22;11432;46.924;7.114;2024-02-26T01:27:56;6.50;99.90
22532;DHT22;11432;46.924;7.114;2024-02-26T01:30:22;6.60;99.90
22532;DHT22;11432;46.924;7.114;2024-02-26T01:32:48;6.60;99.90
22532;DHT22;11432;46.924;7.114;2024-02-26T01:35:13;6.50;1.00
22532;DHT22;11432;46.924;7.114;2024-02-26T01:37:39;6.60;99.90
22532;DHT22;11432;46.924;7.114;2024-02-26T01:40:06;6.60;99.90
22532;DHT22;11432;46.924;7.114;2024-02-26T01:42:32;6.50;1.00
22532;DHT22;11432;46.924;7.114;2024-02-26T01:44:59;6.50;1.00
22532;DHT22;11432;46.924;7.114;2024-02-26T01:47:26;6.50;1.00
22532;DHT22;11432;46.924;7.114;2024-02-26T01:49:53;6.50;18.60
22532;DHT22;11432;46.924;7.114;2024-02-26T01:52:19;6.40;99.90
22532;DHT22;11432;46.924;7.114;2024-02-26T01:54:46;6.40;99.90
22532;DHT22;11432;46.924;7.114;2024-02-26T01:57:12;6.30;1.00
22532;DHT22;11432;46.924;7.114;2024-02-26T01:59:39;6.30;1.00
22532;DHT22;11432;46.924;7.114;2024-02-26T02:02:07;6.30;1.00
22532;DHT22;11432;46.924;7.114;2024-02-26T02:04:34;6.30;93.40
22532;DHT22;11432;46.924;7.114;2024-02-26T02:07:01;6.30;99.90
22532;DHT22;11432;46.924;7.114;2024-02-26T02:09:28;6.20;99.90
22532;DHT22;11432;46.924;7.114;2024-02-26T02:11:54;6.30;99.90
22532;DHT22;11432;46.924;7.114;2024-02-26T02:14:20;6.20;99.90
22532;DHT22;11432;46.924;7.114;2024-02-26T02:16:46;6.30;99.90
22532;DHT22;11432;46.924;7.114;2024-02-26T02:19:13;6.30;99.90
22532;DHT22;11432;46.924;7.114;2024-02-26T02:21:38;6.30;99.90
22532;DHT22;11432;46.924;7.114;2024-02-26T02:24:04;6.30;99.90
22532;DHT22;11432;46.924;7.114;2024-02-26T02:26:29;6.20;99.90
22532;DHT22;11432;46.924;7.114;2024-02-26T02:28:55;6.20;99.90
22532;DHT22;11432;46.924;7.114;2024-02-26T02:31:21;6.20;99.90
22532;DHT22;11432;46.924;7.114;2024-02-26T02:33:48;6.20;99.90
22532;DHT22;11432;46.924;7.114;2024-02-26T02:36:14;6.20;99.90
22532;DHT22;11432;46.924;7.114;2024-02-26T02:38:49;6.10;99.90
22532;DHT22;11432;46.924;7.114;2024-02-26T02:41:17;6.00;99.90
22532;DHT22;11432;46.924;7.114;2024-02-26T02:43:43;6.10;99.90
22532;DHT22;11432;46.924;7.114;2024-02-26T02:46:09;6.10;99.90
22532;DHT22;11432;46.924;7.114;2024-02-26T02:48:37;6.00;99.90
22532;DHT22;11432;46.924;7.114;2024-02-26T02:51:03;6.00;99.90
22532;DHT22;11432;46.924;7.114;2024-02-26T02:53:28;6.00;99.90
22532;DHT22;11432;46.924;7.114;2024-02-26T02:55:54;6.00;99.90
22532;DHT22;11432;46.924;7.114;2024-02-26T02:58:19;6.00;99.90
22532;DHT22;11432;46.924;7.114;2024-02-26T03:00:45;6.00;99.90
22532;DHT22;11432;46.924;7.114;2024-02-26T03:03:10;6.00;99.90
22532;DHT22;11432;46.924;7.114;2024-02-26T03:05:36;6.00;99.90
22532;DHT22;11432;46.924;7.114;2024-02-26T03:08:02;5.90;99.90
22532;DHT22;11432;46.924;7.114;2024-02-26T03:10:27;5.90;99.90
22532;DHT22;11432;46.924;7.114;2024-02-26T03:12:53;6.00;99.90
22532;DHT22;11432;46.924;7.114;2024-02-26T03:15:19;5.90;99.90
22532;DHT22;11432;46.924;7.114;2024-02-26T03:17:45;5.90;99.90
22532;DHT22;11432;46.924;7.114;2024-02-26T03:20:11;6.00;99.90
22532;DHT22;11432;46.924;7.114;2024-02-26T03:22:39;5.90;99.90
22532;DHT22;11432;46.924;7.114;2024-02-26T03:25:06;5.90;99.90
22532;DHT22;11432;46.924;7.114;2024-02-26T03:27:31;6.00;99.90
22532;DHT22;11432;46.924;7.114;2024-02-26T03:29:57;5.90;99.90
22532;DHT22;11432;46.924;7.114;2024-02-26T03:32:23;6.00;99.90
22532;DHT22;11432;46.924;7.114;2024-02-26T03:34:49;5.90;99.90
22532;DHT22;11432;46.924;7.114;2024-02-26T03:37:14;5.90;99.90
22532;DHT22;11432;46.924;7.114;2024-02-26T03:39:40;6.00;99.90
22532;DHT22;11432;46.924;7.114;2024-02-26T03:42:06;6.00;99.90
22532;DHT22;11432;46.924;7.114;2024-02-26T03:44:31;5.90;99.90
22532;DHT22;11432;46.924;7.114;2024-02-26T03:46:57;5.90;99.90
22532;DHT22;11432;46.924;7.114;2024-02-26T03:49:23;5.90;99.90
22532;DHT22;11432;46.924;7.114;2024-02-26T03:51:49;5.90;99.90
22532;DHT22;11432;46.924;7.114;2024-02-26T03:54:14;5.80;99.90
22532;DHT22;11432;46.924;7.114;2024-02-26T03:56:40;5.80;99.90
22532;DHT22;11432;46.924;7.114;2024-02-26T03:59:05;5.80;99.90
22532;DHT22;11432;46.924;7.114;2024-02-26T04:01:31;5.90;99.90
22532;DHT22;11432;46.924;7.114;2024-02-26T04:03:57;5.90;99.90
22532;DHT22;11432;46.924;7.114;2024-02-26T04:06:22;5.90;99.90
22532;DHT22;11432;46.924;7.114;2024-02-26T04:08:48;5.90;99.90
22532;DHT22;11432;46.924;7.114;2024-02-26T04:11:14;5.90;99.90
22532;DHT22;11432;46.924;7.114;2024-02-26T04:13:43;5.90;99.90
22532;DHT22;11432;46.924;7.114;2024-02-26T04:16:11;5.90;99.90
22532;DHT22;11432;46.924;7.114;2024-02-26T04:18:37;5.90;99.90
22532;DHT22;11432;46.924;7.114;2024-02-26T04:21:04;5.90;99.90
22532;DHT22;11432;46.924;7.114;2024-02-26T04:23:30;5.90;99.90
22532;DHT22;11432;46.924;7.114;2024-02-26T04:25:56;5.80;99.90
22532;DHT22;11432;46.924;7.114;2024-02-26T04:28:22;5.80;99.90
22532;DHT22;11432;46.924;7.114;2024-02-26T04:30:50;5.80;99.90
22532;DHT22;11432;46.924;7.114;2024-02-26T04:33:16;5.80;99.90
22532;DHT22;11432;46.924;7.114;2024-02-26T04:35:42;5.80;99.90
22532;DHT22;11432;46.924;7.114;2024-02-26T04:38:08;5.80;99.90
22532;DHT22;11432;46.924;7.114;2024-02-26T04:40:33;5.80;99.90
22532;DHT22;11432;46.924;7.114;2024-02-26T04:42:59;5.80;99.90
22532;DHT22;11432;46.924;7.114;2024-02-26T04:45:24;5.80;99.90
22532;DHT22;11432;46.924;7.114;2024-02-26T04:47:50;5.80;99.90
22532;DHT22;11432;46.924;7.114;2024-02-26T04:50:15;5.80;99.90
22532;DHT22;11432;46.924;7.114;2024-02-26T04:52:41;5.80;99.90
22532;DHT22;11432;46.924;7.114;2024-02-26T04:55:07;5.80;99.90
22532;DHT22;11432;46.924;7.114;2024-02-26T04:57:33;5.80;99.90
22532;DHT22;11432;46.924;7.114;2024-02-26T04:59:59;5.80;99.90
22532;DHT22;11432;46.924;7.114;2024-02-26T05:02:24;5.70;99.90
22532;DHT22;11432;46.924;7.114;2024-02-26T05:04:50;5.70;99.90
22532;DHT22;11432;46.924;7.114;2024-02-26T05:07:16;5.80;99.90
22532;DHT22;11432;46.924;7.114;2024-02-26T05:09:43;5.70;99.90
22532;DHT22;11432;46.924;7.114;2024-02-26T05:12:09;5.70;99.90
22532;DHT22;11432;46.924;7.114;2024-02-26T05:14:35;5.70;99.90
22532;DHT22;11432;46.924;7.114;2024-02-26T05:17:01;5.70;99.90
22532;DHT22;11432;46.924;7.114;2024-02-26T05:19:27;5.70;99.90
22532;DHT22;11432;46.924;7.114;2024-02-26T05:21:52;5.70;99.90
22532;DHT22;11432;46.924;7.114;2024-02-26T05:24:18;5.70;99.90
22532;DHT22;11432;46.924;7.114;2024-02-26T05:26:47;5.70;99.90
22532;DHT22;11432;46.924;7.114;2024-02-26T05:29:13;5.70;99.90
22532;DHT22;11432;46.924;7.114;2024-02-26T05:31:38;5.70;99.90
22532;DHT22;11432;46.924;7.114;2024-02-26T05:34:05;5.70;99.90
22532;DHT22;11432;46.924;7.114;2024-02-26T05:36:30;5.60;99.90
22532;DHT22;11432;46.924;7.114;2024-02-26T05:38:59;5.60;99.90
22532;DHT22;11432;46.924;7.114;2024-02-26T05:41:25;5.60;99.90
22532;DHT22;11432;46.924;7.114;2024-02-26T05:43:52;5.60;99.90
22532;DHT22;11432;46.924;7.114;2024-02-26T05:46:19;5.70;99.90
22532;DHT22;11432;46.924;7.114;2024-02-26T05:48:50;5.60;99.90
22532;DHT22;11432;46.924;7.114;2024-02-26T05:51:16;5.60;99.90
22532;DHT22;11432;46.924;7.114;2024-02-26T05:53:41;5.70;99.90
22532;DHT22;11432;46.924;7.114;2024-02-26T05:56:07;5.70;99.90
22532;DHT22;11432;46.924;7.114;2024-02-26T05:58:33;5.70;99.90
22532;DHT22;11432;46.924;7.114;2024-02-26T06:00:58;5.80;99.90
22532;DHT22;11432;46.924;7.114;2024-02-26T06:03:25;5.70;99.90
22532;DHT22;11432;46.924;7.114;2024-02-26T06:05:51;5.80;99.90
22532;DHT22;11432;46.924;7.114;2024-02-26T06:08:17;5.80;99.90
22532;DHT22;11432;46.924;7.114;2024-02-26T06:10:42;5.80;99.90
22532;DHT22;11432;46.924;7.114;2024-02-26T06:13:08;5.70;99.90
22532;DHT22;11432;46.924;7.114;2024-02-26T06:15:33;5.80;99.90
22532;DHT22;11432;46.924;7.114;2024-02-26T06:17:59;5.80;99.90
22532;DHT22;11432;46.924;7.114;2024-02-26T06:20:24;5.80;99.90
22532;DHT22;11432;46.924;7.114;2024-02-26T06:22:51;5.80;99.90
22532;DHT22;11432;46.924;7.114;2024-02-26T06:25:16;5.70;99.90
22532;DHT22;11432;46.924;7.114;2024-02-26T06:27:42;5.70;99.90
22532;DHT22;11432;46.924;7.114;2024-02-26T06:30:08;5.70;99.90
22532;DHT22;11432;46.924;7.114;2024-02-26T06:32:36;5.70;99.90
22532;DHT22;11432;46.924;7.114;2024-02-26T06:35:02;5.70;99.90
22532;DHT22;11432;46.924;7.114;2024-02-26T06:37:32;5.70;99.90
22532;DHT22;11432;46.924;7.114;2024-02-26T06:39:59;5.70;99.90
22532;DHT22;11432;46.924;7.114;2024-02-26T06:42:25;6.60;99.90
22532;DHT22;11432;46.924;7.114;2024-02-26T06:44:51;5.80;99.90
22532;DHT22;11432;46.924;7.114;2024-02-26T06:47:16;5.80;99.90
22532;DHT22;11432;46.924;7.114;2024-02-26T06:49:42;5.90;99.90
22532;DHT22;11432;46.924;7.114;2024-02-26T06:52:08;5.90;99.90
22532;DHT22;11432;46.924;7.114;2024-02-26T06:54:34;5.90;99.90
22532;DHT22;11432;46.924;7.114;2024-02-26T06:57:00;5.90;99.90
22532;DHT22;11432;46.924;7.114;2024-02-26T06:59:25;6.00;99.90
22532;DHT22;11432;46.924;7.114;2024-02-26T07:01:53;6.10;99.90
22532;DHT22;11432;46.924;7.114;2024-02-26T07:04:20;6.20;99.90
22532;DHT22;11432;46.924;7.114;2024-02-26T07:06:45;6.20;99.90
22532;DHT22;11432;46.924;7.114;2024-02-26T07:09:12;6.30;99.90
22532;DHT22;11432;46.924;7.114;2024-02-26T07:11:37;6.30;99.90
22532;DHT22;11432;46.924;7.114;2024-02-26T07:14:04;6.40;99.90
22532;DHT22;11432;46.924;7.114;2024-02-26T07:16:30;6.50;99.90
22532;DHT22;11432;46.924;7.114;2024-02-26T07:18:56;6.40;1.00
22532;DHT22;11432;46.924;7.114;2024-02-26T07:21:21;6.50;48.50
22532;DHT22;11432;46.924;7.114;2024-02-26T07:23:47;6.40;1.00
22532;DHT22;11432;46.924;7.114;2024-02-26T07:26:12;6.40;1.00
22532;DHT22;11432;46.924;7.114;2024-02-26T07:28:38;6.40;1.00
22532;DHT22;11432;46.924;7.114;2024-02-26T07:31:04;6.30;1.00
22532;DHT22;11432;46.924;7.114;2024-02-26T07:33:29;6.30;1.00
22532;DHT22;11432;46.924;7.114;2024-02-26T07:35:55;6.30;1.00
22532;DHT22;11432;46.924;7.114;2024-02-26T07:38:20;6.30;1.00
22532;DHT22;11432;46.924;7.114;2024-02-26T07:40:46;6.30;1.00
22532;DHT22;11432;46.924;7.114;2024-02-26T07:43:12;6.30;1.00
22532;DHT22;11432;46.924;7.114;2024-02-26T07:45:37;6.30;1.00
22532;DHT22;11432;46.924;7.114;2024-02-26T07:48:03;6.40;24.80
22532;DHT22;11432;46.924;7.114;2024-02-26T07:50:29;6.40;99.90
22532;DHT22;11432;46.924;7.114;2024-02-26T07:52:54;6.40;99.90
22532;DHT22;11432;46.924;7.114;2024-02-26T07:55:20;6.50;99.90
22532;DHT22;11432;46.924;7.114;2024-02-26T07:57:46;6.50;99.90
22532;DHT22;11432;46.924;7.114;2024-02-26T08:00:12;6.60;99.90
22532;DHT22;11432;46.924;7.114;2024-02-26T08:02:42;6.60;99.90
22532;DHT22;11432;46.924;7.114;2024-02-26T08:05:07;6.60;99.90
22532;DHT22;11432;46.924;7.114;2024-02-26T08:07:33;6.70;99.90
22532;DHT22;11432;46.924;7.114;2024-02-26T08:09:59;6.80;99.90
22532;DHT22;11432;46.924;7.114;2024-02-26T08:12:24;6.90;99.90
22532;DHT22;11432;46.924;7.114;2024-02-26T08:14:50;7.00;1.00
22532;DHT22;11432;46.924;7.114;2024-02-26T08:17:15;6.90;1.00
22532;DHT22;11432;46.924;7.114;2024-02-26T08:19:41;6.90;2.60
22532;DHT22;11432;46.924;7.114;2024-02-26T08:22:06;6.90;35.00
22532;DHT22;11432;46.924;7.114;2024-02-26T08:24:32;6.90;59.20
22532;DHT22;11432;46.924;7.114;2024-02-26T08:26:58;6.80;29.50
22532;DHT22;11432;46.924;7.114;2024-02-26T08:29:23;6.80;99.90
22532;DHT22;11432;46.924;7.114;2024-02-26T08:31:49;6.90;99.90
22532;DHT22;11432;46.924;7.114;2024-02-26T08:34:14;7.10;99.90
22532;DHT22;11432;46.924;7.114;2024-02-26T08:36:40;7.20;99.90
22532;DHT22;11432;46.924;7.114;2024-02-26T08:39:06;7.40;1.00
22532;DHT22;11432;46.924;7.114;2024-02-26T08:41:34;7.50;1.00
22532;DHT22;11432;46.924;7.114;2024-02-26T08:43:59;7.70;1.00
22532;DHT22;11432;46.924;7.114;2024-02-26T08:46:25;7.80;1.00
22532;DHT22;11432;46.924;7.114;2024-02-26T08:48:50;7.90;1.00
22532;DHT22;11432;46.924;7.114;2024-02-26T08:51:16;8.00;99.90
22532;DHT22;11432;46.924;7.114;2024-02-26T08:53:42;8.10;29.40
22532;DHT22;11432;46.924;7.114;2024-02-26T08:56:07;8.10;1.00
22532;DHT22;11432;46.924;7.114;2024-02-26T08:58:33;7.90;1.00
22532;DHT22;11432;46.924;7.114;2024-02-26T09:00:59;7.80;1.00
22532;DHT22;11432;46.924;7.114;2024-02-26T09:03:24;7.70;1.00
22532;DHT22;11432;46.924;7.114;2024-02-26T09:05:51;7.70;1.00
22532;DHT22;11432;46.924;7.114;2024-02-26T09:08:17;7.70;99.90
22532;DHT22;11432;46.924;7.114;2024-02-26T09:10:42;7.70;99.90
22532;DHT22;11432;46.924;7.114;2024-02-26T09:13:08;7.90;99.90
22532;DHT22;11432;46.924;7.114;2024-02-26T09:15:34;7.90;1.00
22532;DHT22;11432;46.924;7.114;2024-02-26T09:17:59;8.00;99.90
22532;DHT22;11432;46.924;7.114;2024-02-26T09:20:25;8.10;1.00
22532;DHT22;11432;46.924;7.114;2024-02-26T09:22:51;8.20;3.00
22532;DHT22;11432;46.924;7.114;2024-02-26T09:25:17;8.20;99.90
22532;DHT22;11432;46.924;7.114;2024-02-26T09:27:43;8.20;99.90
22532;DHT22;11432;46.924;7.114;2024-02-26T09:30:12;8.20;99.90
22532;DHT22;11432;46.924;7.114;2024-02-26T09:32:38;8.30;1.00
22532;DHT22;11432;46.924;7.114;2024-02-26T09:35:04;8.30;99.90
22532;DHT22;11432;46.924;7.114;2024-02-26T09:37:30;8.30;99.90
22532;DHT22;11432;46.924;7.114;2024-02-26T09:39:56;8.20;99.90
22532;DHT22;11432;46.924;7.114;2024-02-26T09:42:25;8.30;1.00
22532;DHT22;11432;46.924;7.114;2024-02-26T09:44:51;8.40;1.00
22532;DHT22;11432;46.924;7.114;2024-02-26T09:47:19;8.30;1.00
22532;DHT22;11432;46.924;7.114;2024-02-26T09:49:47;8.30;1.00
22532;DHT22;11432;46.924;7.114;2024-02-26T09:52:15;8.30;99.90
22532;DHT22;11432;46.924;7.114;2024-02-26T09:54:41;8.40;99.90
22532;DHT22;11432;46.924;7.114;2024-02-26T09:57:09;8.50;1.00
22532;DHT22;11432;46.924;7.114;2024-02-26T09:59:41;8.70;99.90
22532;DHT22;11432;46.924;7.114;2024-02-26T10:02:14;8.80;1.00
22532;DHT22;11432;46.924;7.114;2024-02-26T10:04:41;8.80;99.90
22532;DHT22;11432;46.924;7.114;2024-02-26T10:07:11;8.90;99.90
22532;DHT22;11432;46.924;7.114;2024-02-26T10:09:38;9.10;99.90
22532;DHT22;11432;46.924;7.114;2024-02-26T10:12:04;9.20;99.90
22532;DHT22;11432;46.924;7.114;2024-02-26T10:14:31;9.30;1.00
22532;DHT22;11432;46.924;7.114;2024-02-26T10:16:57;9.30;1.00
22532;DHT22;11432;46.924;7.114;2024-02-26T10:19:27;9.30;99.90
22532;DHT22;11432;46.924;7.114;2024-02-26T10:21:55;9.20;35.20
22532;DHT22;11432;46.924;7.114;2024-02-26T10:24:21;9.10;99.90
22532;DHT22;11432;46.924;7.114;2024-02-26T10:26:46;9.30;99.90
22532;DHT22;11432;46.924;7.114;2024-02-26T10:29:12;9.50;44.90
22532;DHT22;11432;46.924;7.114;2024-02-26T10:31:42;9.50;1.00
22532;DHT22;11432;46.924;7.114;2024-02-26T10:34:07;9.50;1.00
22532;DHT22;11432;46.924;7.114;2024-02-26T10:36:34;9.60;1.00
22532;DHT22;11432;46.924;7.114;2024-02-26T10:39:02;9.70;1.00
22532;DHT22;11432;46.924;7.114;2024-02-26T10:41:29;9.70;1.00
22532;DHT22;11432;46.924;7.114;2024-02-26T10:43:55;9.60;1.00
22532;DHT22;11432;46.924;7.114;2024-02-26T10:46:20;9.70;1.00
22532;DHT22;11432;46.924;7.114;2024-02-26T10:48:50;9.80;1.00
22532;DHT22;11432;46.924;7.114;2024-02-26T10:51:22;9.90;1.00
22532;DHT22;11432;46.924;7.114;2024-02-26T10:53:53;10.10;1.00
22532;DHT22;11432;46.924;7.114;2024-02-26T10:56:24;10.30;99.90
22532;DHT22;11432;46.924;7.114;2024-02-26T10:58:51;10.10;99.90
22532;DHT22;11432;46.924;7.114;2024-02-26T11:01:18;9.90;99.90
22532;DHT22;11432;46.924;7.114;2024-02-26T11:03:45;9.80;1.00
22532;DHT22;11432;46.924;7.114;2024-02-26T11:06:12;9.70;1.00
22532;DHT22;11432;46.924;7.114;2024-02-26T11:08:37;9.80;1.00
22532;DHT22;11432;46.924;7.114;2024-02-26T11:11:04;10.10;1.00
22532;DHT22;11432;46.924;7.114;2024-02-26T11:13:31;10.20;99.90
22532;DHT22;11432;46.924;7.114;2024-02-26T11:15:56;10.60;99.90
22532;DHT22;11432;46.924;7.114;2024-02-26T11:18:23;10.50;99.90
22532;DHT22;11432;46.924;7.114;2024-02-26T11:20:51;10.30;99.90
22532;DHT22;11432;46.924;7.114;2024-02-26T11:23:17;10.40;99.90
22532;DHT22;11432;46.924;7.114;2024-02-26T11:25:43;10.70;99.90
22532;DHT22;11432;46.924;7.114;2024-02-26T11:28:11;11.40;1.00
22532;DHT22;11432;46.924;7.114;2024-02-26T11:30:43;12.20;1.00
22532;DHT22;11432;46.924;7.114;2024-02-26T11:33:10;12.50;1.00
22532;DHT22;11432;46.924;7.114;2024-02-26T11:35:37;12.60;99.90
22532;DHT22;11432;46.924;7.114;2024-02-26T11:38:03;12.20;99.90
22532;DHT22;11432;46.924;7.114;2024-02-26T11:40:31;11.90;99.90
22532;DHT22;11432;46.924;7.114;2024-02-26T11:42:58;11.80;99.90
22532;DHT22;11432;46.924;7.114;2024-02-26T11:48:19;11.50;99.90
22532;DHT22;11432;46.924;7.114;2024-02-26T11:50:52;11.20;99.90
22532;DHT22;11432;46.924;7.114;2024-02-26T11:53:29;11.00;99.90
22532;DHT22;11432;46.924;7.114;2024-02-26T11:58:47;11.00;99.90
22532;DHT22;11432;46.924;7.114;2024-02-26T12:04:06;11.30;99.90
22532;DHT22;11432;46.924;7.114;2024-02-26T12:06:44;11.30;99.90
22532;DHT22;11432;46.924;7.114;2024-02-26T12:09:10;11.30;99.90
22532;DHT22;11432;46.924;7.114;2024-02-26T12:11:40;11.10;99.90
22532;DHT22;11432;46.924;7.114;2024-02-26T12:14:08;11.10;99.90
22532;DHT22;11432;46.924;7.114;2024-02-26T12:16:43;11.10;99.90
22532;DHT22;11432;46.924;7.114;2024-02-26T12:19:10;11.10;99.90
22532;DHT22;11432;46.924;7.114;2024-02-26T12:21:37;11.00;99.90
22532;DHT22;11432;46.924;7.114;2024-02-26T12:24:13;11.20;99.90
22532;DHT22;11432;46.924;7.114;2024-02-26T12:26:40;11.60;99.90
22532;DHT22;11432;46.924;7.114;2024-02-26T12:29:06;11.50;99.90
22532;DHT22;11432;46.924;7.114;2024-02-26T12:31:35;11.60;99.90
22532;DHT22;11432;46.924;7.114;2024-02-26T12:34:04;11.70;99.90
22532;DHT22;11432;46.924;7.114;2024-02-26T12:36:30;11.80;99.90
22532;DHT22;11432;46.924;7.114;2024-02-26T12:38:56;11.80;99.90
22532;DHT22;11432;46.924;7.114;2024-02-26T12:41:22;11.90;99.90
22532;DHT22;11432;46.924;7.114;2024-02-26T12:43:48;12.10;99.90
22532;DHT22;11432;46.924;7.114;2024-02-26T12:46:14;11.90;99.90
22532;DHT22;11432;46.924;7.114;2024-02-26T12:48:43;11.80;99.90
22532;DHT22;11432;46.924;7.114;2024-02-26T12:51:11;11.50;99.90
22532;DHT22;11432;46.924;7.114;2024-02-26T12:53:38;11.70;99.90
22532;DHT22;11432;46.924;7.114;2024-02-26T12:56:08;11.60;99.90
22532;DHT22;11432;46.924;7.114;2024-02-26T12:58:34;11.60;99.90
22532;DHT22;11432;46.924;7.114;2024-02-26T13:01:01;11.80;99.90
22532;DHT22;11432;46.924;7.114;2024-02-26T13:03:27;11.90;99.90
22532;DHT22;11432;46.924;7.114;2024-02-26T13:05:53;12.00;99.90
22532;DHT22;11432;46.924;7.114;2024-02-26T13:08:20;12.00;99.90
22532;DHT22;11432;46.924;7.114;2024-02-26T13:10:47;11.60;99.90
22532;DHT22;11432;46.924;7.114;2024-02-26T13:13:16;11.70;99.90
22532;DHT22;11432;46.924;7.114;2024-02-26T13:15:45;11.70;99.90
22532;DHT22;11432;46.924;7.114;2024-02-26T13:18:14;11.90;99.90
22532;DHT22;11432;46.924;7.114;2024-02-26T13:20:40;12.30;99.90
22532;DHT22;11432;46.924;7.114;2024-02-26T13:23:08;12.70;99.90
22532;DHT22;11432;46.924;7.114;2024-02-26T13:25:36;12.80;99.90
22532;DHT22;11432;46.924;7.114;2024-02-26T13:28:17;12.90;99.90
22532;DHT22;11432;46.924;7.114;2024-02-26T13:30:53;13.20;99.90
22532;DHT22;11432;46.924;7.114;2024-02-26T13:33:19;13.40;99.90
22532;DHT22;11432;46.924;7.114;2024-02-26T13:35:44;14.00;99.90
22532;DHT22;11432;46.924;7.114;2024-02-26T13:38:10;14.50;99.90
22532;DHT22;11432;46.924;7.114;2024-02-26T13:40:37;14.70;99.90
22532;DHT22;11432;46.924;7.114;2024-02-26T13:43:04;14.80;99.90
22532;DHT22;11432;46.924;7.114;2024-02-26T13:45:30;15.50;99.90
22532;DHT22;11432;46.924;7.114;2024-02-26T13:48:02;16.20;99.90
22532;DHT22;11432;46.924;7.114;2024-02-26T13:50:28;16.10;99.90
22532;DHT22;11432;46.924;7.114;2024-02-26T13:52:54;16.00;99.90
22532;DHT22;11432;46.924;7.114;2024-02-26T13:55:27;16.00;99.90
22532;DHT22;11432;46.924;7.114;2024-02-26T13:57:57;16.10;99.90
22532;DHT22;11432;46.924;7.114;2024-02-26T14:00:24;15.40;99.90
22532;DHT22;11432;46.924;7.114;2024-02-26T14:02:52;15.10;99.90
22532;DHT22;11432;46.924;7.114;2024-02-26T14:05:18;15.00;99.90
22532;DHT22;11432;46.924;7.114;2024-02-26T14:07:43;14.90;99.90
22532;DHT22;11432;46.924;7.114;2024-02-26T14:10:11;14.70;99.90
22532;DHT22;11432;46.924;7.114;2024-02-26T14:12:37;14.90;99.90
22532;DHT22;11432;46.924;7.114;2024-02-26T14:15:05;16.00;99.90
22532;DHT22;11432;46.924;7.114;2024-02-26T14:17:31;16.70;99.90
22532;DHT22;11432;46.924;7.114;2024-02-26T14:19:56;16.40;99.90
22532;DHT22;11432;46.924;7.114;2024-02-26T14:22:22;16.50;99.90
22532;DHT22;11432;46.924;7.114;2024-02-26T14:24:48;17.00;99.90
22532;DHT22;11432;46.924;7.114;2024-02-26T14:27:13;16.70;99.90
22532;DHT22;11432;46.924;7.114;2024-02-26T14:29:43;16.50;99.90
22532;DHT22;11432;46.924;7.114;2024-02-26T14:32:12;16.00;99.90
22532;DHT22;11432;46.924;7.114;2024-02-26T14:34:38;14.60;99.90
22532;DHT22;11432;46.924;7.114;2024-02-26T14:37:04;13.50;99.90
22532;DHT22;11432;46.924;7.114;2024-02-26T14:39:33;12.60;99.90
22532;DHT22;11432;46.924;7.114;2024-02-26T14:41:59;12.20;99.90
22532;DHT22;11432;46.924;7.114;2024-02-26T14:44:26;12.10;99.90
22532;DHT22;11432;46.924;7.114;2024-02-26T14:46:51;12.40;99.90
22532;DHT22;11432;46.924;7.114;2024-02-26T14:49:17;12.50;99.90
22532;DHT22;11432;46.924;7.114;2024-02-26T14:51:43;12.10;99.90
22532;DHT22;11432;46.924;7.114;2024-02-26T14:54:13;11.90;99.90
22532;DHT22;11432;46.924;7.114;2024-02-26T14:56:38;12.00;99.90
22532;DHT22;11432;46.924;7.114;2024-02-26T14:59:04;12.10;99.90
22532;DHT22;11432;46.924;7.114;2024-02-26T15:01:30;12.20;99.90
22532;DHT22;11432;46.924;7.114;2024-02-26T15:03:56;12.20;99.90
22532;DHT22;11432;46.924;7.114;2024-02-26T15:06:23;12.10;99.90
22532;DHT22;11432;46.924;7.114;2024-02-26T15:08:48;12.00;99.90
22532;DHT22;11432;46.924;7.114;2024-02-26T15:11:14;11.90;99.90
22532;DHT22;11432;46.924;7.114;2024-02-26T15:13:40;11.90;99.90
22532;DHT22;11432;46.924;7.114;2024-02-26T15:16:06;12.00;99.90
22532;DHT22;11432;46.924;7.114;2024-02-26T15:18:32;12.00;99.90
22532;DHT22;11432;46.924;7.114;2024-02-26T15:20:58;12.10;99.90
22532;DHT22;11432;46.924;7.114;2024-02-26T15:23:24;12.10;99.90
22532;DHT22;11432;46.924;7.114;2024-02-26T15:25:49;12.20;99.90
22532;DHT22;11432;46.924;7.114;2024-02-26T15:28:15;12.30;99.90
22532;DHT22;11432;46.924;7.114;2024-02-26T15:30:41;12.20;99.90
22532;DHT22;11432;46.924;7.114;2024-02-26T15:33:07;12.10;99.90
22532;DHT22;11432;46.924;7.114;2024-02-26T15:35:33;11.90;99.90
22532;DHT22;11432;46.924;7.114;2024-02-26T15:37:58;11.70;99.90
22532;DHT22;11432;46.924;7.114;2024-02-26T15:40:25;11.70;99.90
22532;DHT22;11432;46.924;7.114;2024-02-26T15:42:50;11.70;99.90
22532;DHT22;11432;46.924;7.114;2024-02-26T15:45:16;11.80;99.90
22532;DHT22;11432;46.924;7.114;2024-02-26T15:47:42;11.70;99.90